Time;durP1;ratioP1;P1;durP2;ratioP2;P2;SDS_P1;SDS_P2;PMS_P1;PMS_P2;Temp;Humidity;BMP_temperature;BMP_pressure;BME280_temperature;BME280_humidity;BME280_pressure;Samples;Min_cycle;Max_cycle;Signal;HPM_P1;HPM_P2
2023/08/09 00:00:47;;;;;;;8.38;5.22;;;12.80;99.90;;;;;;5019387;28;20048;-85
2023/08/09 00:03:13;;;;;;;8.63;5.30;;;12.80;99.90;;;;;;5034939;28;20485;-85
2023/08/09 00:05:39;;;;;;;8.77;5.28;;;12.80;99.90;;;;;;5050315;28;20541;-85
2023/08/09 00:08:05;;;;;;;8.85;5.50;;;12.80;99.90;;;;;;5053034;28;20598;-85
2023/08/09 00:10:34;;;;;;;8.80;5.25;;;12.80;99.90;;;;;;5038099;28;20024;-85
2023/08/09 00:13:00;;;;;;;7.65;4.90;;;12.80;99.90;;;;;;5054534;28;20044;-85
2023/08/09 00:15:26;;;;;;;6.93;5.05;;;12.80;99.90;;;;;;5039237;28;20043;-85
2023/08/09 00:17:52;;;;;;;6.63;4.68;;;12.80;99.90;;;;;;5034926;28;20041;-85
2023/08/09 00:20:20;;;;;;;7.40;5.03;;;12.80;99.90;;;;;;5040463;28;20070;-85
2023/08/09 00:22:46;;;;;;;8.18;4.88;;;12.80;99.90;;;;;;5057519;28;20459;-85
2023/08/09 00:25:12;;;;;;;10.82;5.78;;;12.80;99.90;;;;;;5035206;28;20045;-85
2023/08/09 00:27:39;;;;;;;7.28;4.53;;;12.80;99.90;;;;;;5035143;28;20076;-85
2023/08/09 00:30:10;;;;;;;8.82;4.90;;;12.80;99.90;;;;;;5051071;28;20045;-85
2023/08/09 00:32:37;;;;;;;8.27;5.85;;;12.80;99.90;;;;;;5037892;28;20392;-85
2023/08/09 00:35:03;;;;;;;10.13;5.47;;;12.80;99.90;;;;;;5034489;28;20079;-85
2023/08/09 00:37:29;;;;;;;10.82;5.38;;;12.70;99.90;;;;;;5036767;28;20048;-85
2023/08/09 00:39:55;;;;;;;8.00;5.47;;;12.70;99.90;;;;;;5050911;28;20072;-85
2023/08/09 00:42:23;;;;;;;10.32;5.70;;;12.70;99.90;;;;;;5034435;28;20064;-85
2023/08/09 00:44:49;;;;;;;11.98;7.22;;;12.70;99.90;;;;;;5049930;28;20053;-85
2023/08/09 00:47:15;;;;;;;9.25;6.20;;;12.70;99.90;;;;;;5030580;28;20049;-85
2023/08/09 00:49:42;;;;;;;10.57;5.90;;;12.70;99.90;;;;;;5014260;28;20041;-85
2023/08/09 00:52:08;;;;;;;11.15;7.13;;;12.70;99.90;;;;;;5014530;28;20397;-86
2023/08/09 00:54:38;;;;;;;11.75;7.07;;;12.70;99.90;;;;;;5017304;28;20050;-86
2023/08/09 00:57:05;;;;;;;9.93;6.32;;;12.60;99.90;;;;;;5040409;28;20040;-85
2023/08/09 00:59:31;;;;;;;13.00;7.03;;;12.70;99.90;;;;;;5018222;28;20440;-86
2023/08/09 01:01:57;;;;;;;10.00;7.40;;;12.60;99.90;;;;;;5033229;28;20037;-86
2023/08/09 01:04:23;;;;;;;8.07;5.70;;;12.70;99.90;;;;;;5033511;28;20109;-86
2023/08/09 01:07:10;;;;;;;12.85;7.18;;;12.70;99.90;;;;;;5013589;28;20048;-85
2023/08/09 01:09:45;;;;;;;11.57;7.30;;;12.60;99.90;;;;;;5038088;28;20041;-85
2023/08/09 01:12:16;;;;;;;10.32;7.55;;;12.60;99.90;;;;;;5044368;28;20048;-86
2023/08/09 01:14:43;;;;;;;11.23;7.05;;;12.60;99.90;;;;;;5042143;28;20041;-86
2023/08/09 01:17:13;;;;;;;12.77;7.40;;;12.60;99.90;;;;;;5047181;28;20040;-85
2023/08/09 01:19:43;;;;;;;9.00;7.20;;;12.60;99.90;;;;;;5062460;28;20385;-86
2023/08/09 01:22:17;;;;;;;13.27;8.15;;;12.60;99.90;;;;;;5051416;28;20579;-85
2023/08/09 01:24:44;;;;;;;9.88;7.13;;;12.60;99.90;;;;;;5036764;28;20123;-86
2023/08/09 01:27:09;;;;;;;11.32;6.93;;;12.60;99.90;;;;;;5033592;28;20033;-86
2023/08/09 01:29:36;;;;;;;11.73;7.88;;;12.50;99.90;;;;;;5020240;28;20032;-86
2023/08/09 01:32:02;;;;;;;11.63;8.27;;;12.50;99.90;;;;;;5050088;28;20578;-86
2023/08/09 01:34:28;;;;;;;12.50;8.10;;;12.60;99.90;;;;;;5050243;28;20068;-85
2023/08/09 01:36:57;;;;;;;13.90;8.27;;;12.50;99.90;;;;;;5050268;28;20504;-85
2023/08/09 01:39:27;;;;;;;12.10;7.93;;;12.50;99.90;;;;;;5052485;28;20123;-85
2023/08/09 01:41:55;;;;;;;13.25;8.50;;;12.50;99.90;;;;;;5069669;28;20051;-85
2023/08/09 01:44:23;;;;;;;12.15;8.15;;;12.50;99.90;;;;;;5041798;28;20102;-86
2023/08/09 01:46:49;;;;;;;12.13;7.30;;;12.50;99.90;;;;;;5035400;28;20064;-85
2023/08/09 01:49:21;;;;;;;12.45;8.02;;;12.50;99.90;;;;;;5023016;28;20048;-85
2023/08/09 01:51:47;;;;;;;10.98;7.60;;;12.50;99.90;;;;;;5042472;28;20487;-85
2023/08/09 01:54:14;;;;;;;14.73;8.20;;;12.50;99.90;;;;;;5052611;28;20037;-85
2023/08/09 01:56:40;;;;;;;9.65;7.72;;;12.50;99.90;;;;;;5049965;28;20049;-85
2023/08/09 01:59:08;;;;;;;11.90;8.15;;;12.50;99.90;;;;;;5037347;28;20369;-85
2023/08/09 02:01:37;;;;;;;10.18;8.02;;;12.50;99.90;;;;;;5034550;28;20037;-85
2023/08/09 02:04:04;;;;;;;9.68;7.63;;;12.40;99.90;;;;;;5044710;28;20045;-85
2023/08/09 02:06:34;;;;;;;12.55;8.18;;;12.40;99.90;;;;;;5017182;28;20120;-85
2023/08/09 02:09:01;;;;;;;10.65;7.43;;;12.40;99.90;;;;;;5020228;28;20045;-85
2023/08/09 02:11:27;;;;;;;11.05;7.55;;;12.40;99.90;;;;;;5016789;28;20098;-85
2023/08/09 02:13:53;;;;;;;9.52;7.63;;;12.30;99.90;;;;;;5036743;28;20080;-85
2023/08/09 02:16:19;;;;;;;11.27;7.70;;;12.30;99.90;;;;;;5017088;28;20461;-86
2023/08/09 02:18:45;;;;;;;10.32;7.20;;;12.30;99.90;;;;;;5032841;28;20084;-85
2023/08/09 02:21:11;;;;;;;9.48;7.00;;;12.20;99.90;;;;;;5016620;28;20048;-85
2023/08/09 02:23:40;;;;;;;9.40;6.97;;;12.20;99.90;;;;;;5032903;28;20037;-86
2023/08/09 02:26:07;;;;;;;11.60;6.97;;;12.20;99.90;;;;;;5032679;28;20040;-86
2023/08/09 02:28:33;;;;;;;11.20;7.18;;;12.20;99.90;;;;;;5039955;28;20048;-86
2023/08/09 02:30:59;;;;;;;10.50;7.00;;;12.20;99.90;;;;;;5044546;28;20037;-86
2023/08/09 02:33:25;;;;;;;15.10;8.48;;;12.10;99.90;;;;;;5053362;28;20404;-86
2023/08/09 02:36:02;;;;;;;9.40;7.13;;;12.00;99.90;;;;;;5046214;28;20041;-85
2023/08/09 02:38:29;;;;;;;11.13;7.25;;;12.10;99.90;;;;;;5044399;28;20397;-86
2023/08/09 02:40:55;;;;;;;11.70;7.07;;;12.10;99.90;;;;;;5036664;28;20041;-86
2023/08/09 02:43:25;;;;;;;9.82;6.82;;;12.10;99.90;;;;;;5036439;28;20051;-86
2023/08/09 02:45:53;;;;;;;10.15;6.82;;;12.10;99.90;;;;;;5036404;28;20126;-86
2023/08/09 02:48:20;;;;;;;13.18;7.25;;;12.00;99.90;;;;;;5039909;28;20049;-85
2023/08/09 02:50:46;;;;;;;9.77;7.07;;;12.00;99.90;;;;;;5038901;28;20397;-85
2023/08/09 02:53:12;;;;;;;12.57;7.13;;;12.00;99.90;;;;;;5055778;28;20476;-85
2023/08/09 02:55:38;;;;;;;11.55;7.80;;;12.00;99.90;;;;;;5052765;28;20079;-86
2023/08/09 02:58:05;;;;;;;11.07;7.20;;;11.90;99.90;;;;;;5036251;28;20045;-85
2023/08/09 03:00:34;;;;;;;9.95;6.65;;;11.90;99.90;;;;;;5053181;28;20440;-85
2023/08/09 03:03:01;;;;;;;10.27;6.60;;;11.90;99.90;;;;;;5035873;28;20110;-85
2023/08/09 03:05:30;;;;;;;11.98;7.35;;;11.90;99.90;;;;;;5043004;28;20438;-85
2023/08/09 03:07:56;;;;;;;12.98;8.38;;;11.90;99.90;;;;;;5047983;28;20123;-85
2023/08/09 03:10:23;;;;;;;8.52;6.20;;;11.80;99.90;;;;;;5061219;28;20039;-85
2023/08/09 03:12:49;;;;;;;11.27;7.47;;;11.80;99.90;;;;;;5019672;28;20051;-85
2023/08/09 03:15:16;;;;;;;9.88;7.10;;;11.70;99.90;;;;;;5052983;28;20119;-85
2023/08/09 03:17:42;;;;;;;8.93;6.57;;;11.80;99.90;;;;;;5049393;28;20045;-85
2023/08/09 03:20:14;;;;;;;8.20;6.05;;;11.70;99.90;;;;;;5046758;28;20032;-85
2023/08/09 03:22:43;;;;;;;10.10;6.45;;;11.70;99.90;;;;;;5053432;28;20416;-85
2023/08/09 03:25:10;;;;;;;9.10;6.30;;;11.70;99.90;;;;;;5039529;28;20036;-86
2023/08/09 03:27:36;;;;;;;10.55;7.45;;;11.70;99.90;;;;;;5027353;28;20078;-85
2023/08/09 03:30:05;;;;;;;10.05;7.15;;;11.70;99.90;;;;;;5045323;28;20036;-85
2023/08/09 03:32:30;;;;;;;10.52;7.53;;;11.60;99.90;;;;;;5052358;28;20045;-85
2023/08/09 03:34:56;;;;;;;9.50;7.03;;;11.60;99.90;;;;;;5035576;28;20055;-85
2023/08/09 03:37:22;;;;;;;11.10;7.45;;;11.60;99.90;;;;;;5021084;28;20120;-85
2023/08/09 03:39:48;;;;;;;10.50;6.90;;;11.60;99.90;;;;;;5039371;28;20047;-85
2023/08/09 03:42:14;;;;;;;8.82;6.85;;;11.50;99.90;;;;;;5046274;28;20048;-85
2023/08/09 03:44:39;;;;;;;9.80;7.00;;;11.50;99.90;;;;;;5052001;28;20041;-85
2023/08/09 03:47:05;;;;;;;9.90;7.22;;;11.40;99.90;;;;;;5036690;28;20043;-85
2023/08/09 03:49:31;;;;;;;10.70;7.43;;;11.40;99.90;;;;;;5027500;28;20053;-85
2023/08/09 03:51:56;;;;;;;9.98;6.97;;;11.40;99.90;;;;;;5035107;28;20051;-85
2023/08/09 03:54:22;;;;;;;9.43;7.28;;;11.40;99.90;;;;;;5052696;28;20036;-85
2023/08/09 03:56:48;;;;;;;8.18;6.20;;;11.40;99.90;;;;;;5037392;28;20071;-84
2023/08/09 03:59:13;;;;;;;8.43;6.68;;;11.40;99.90;;;;;;5034581;28;20032;-84
2023/08/09 04:01:39;;;;;;;10.32;7.32;;;11.40;99.90;;;;;;5051471;28;20041;-85
2023/08/09 04:04:05;;;;;;;8.43;6.68;;;11.40;99.90;;;;;;5034401;28;20037;-85
2023/08/09 04:06:31;;;;;;;8.30;6.90;;;11.30;99.90;;;;;;5051473;28;20401;-85
2023/08/09 04:08:56;;;;;;;9.18;6.60;;;11.30;99.90;;;;;;5018423;28;20041;-85
2023/08/09 04:11:22;;;;;;;11.15;7.10;;;11.30;99.90;;;;;;5035339;28;20040;-85
2023/08/09 04:13:48;;;;;;;13.52;8.60;;;11.40;99.90;;;;;;5034340;28;20043;-85
2023/08/09 04:16:14;;;;;;;10.07;7.07;;;11.30;99.90;;;;;;5049958;28;20037;-85
2023/08/09 04:18:39;;;;;;;10.82;7.18;;;11.40;99.90;;;;;;5049117;28;20079;-85
2023/08/09 04:21:06;;;;;;;10.07;7.03;;;11.40;99.90;;;;;;5031259;28;20041;-85
2023/08/09 04:23:32;;;;;;;9.87;7.47;;;11.30;99.90;;;;;;5054701;28;20503;-85
2023/08/09 04:25:59;;;;;;;9.97;7.00;;;11.30;99.90;;;;;;5051468;28;20038;-85
2023/08/09 04:28:25;;;;;;;10.67;7.50;;;11.30;99.90;;;;;;5041670;28;20041;-85
2023/08/09 04:30:51;;;;;;;10.55;7.65;;;11.30;99.90;;;;;;5017904;28;20043;-85
2023/08/09 04:33:17;;;;;;;10.13;7.90;;;11.40;99.90;;;;;;5055304;28;20094;-85
2023/08/09 04:35:43;;;;;;;11.33;7.80;;;11.40;99.90;;;;;;5034153;28;20041;-85
2023/08/09 04:38:09;;;;;;;11.30;8.88;;;11.40;99.90;;;;;;5034536;28;20040;-85
2023/08/09 04:40:36;;;;;;;9.95;7.78;;;11.40;99.90;;;;;;5038488;28;20131;-85
2023/08/09 04:43:03;;;;;;;10.10;7.30;;;11.40;99.90;;;;;;5030692;28;20049;-85
2023/08/09 04:45:29;;;;;;;15.25;8.27;;;11.40;99.90;;;;;;5030847;28;20081;-85
2023/08/09 04:47:56;;;;;;;10.53;7.90;;;11.40;99.90;;;;;;5033199;28;20051;-85
2023/08/09 04:50:23;;;;;;;10.37;8.23;;;11.40;99.90;;;;;;5034334;28;20044;-85
2023/08/09 04:52:50;;;;;;;11.13;8.48;;;11.40;99.90;;;;;;5041798;28;20038;-85
2023/08/09 04:55:16;;;;;;;9.50;7.50;;;11.30;99.90;;;;;;5048510;28;20455;-86
2023/08/09 04:57:42;;;;;;;11.73;8.70;;;11.40;99.90;;;;;;5051882;28;20384;-86
2023/08/09 05:00:12;;;;;;;12.15;9.65;;;11.50;99.90;;;;;;5049965;28;20037;-86
2023/08/09 05:02:38;;;;;;;9.43;8.00;;;11.50;99.90;;;;;;5020550;28;20132;-85
2023/08/09 05:05:08;;;;;;;10.57;8.52;;;11.50;99.90;;;;;;5057767;28;20037;-85
2023/08/09 05:07:35;;;;;;;10.75;8.57;;;11.60;99.90;;;;;;5050554;28;20037;-85
2023/08/09 05:10:02;;;;;;;11.57;8.95;;;11.60;99.90;;;;;;5055693;28;20481;-85
2023/08/09 05:12:28;;;;;;;11.15;8.43;;;11.70;99.90;;;;;;5029445;28;20438;-85
2023/08/09 05:14:53;;;;;;;11.07;8.37;;;11.70;99.90;;;;;;5052953;28;20044;-85
2023/08/09 05:17:19;;;;;;;11.02;8.23;;;11.80;99.90;;;;;;5034043;28;20479;-85
2023/08/09 05:19:45;;;;;;;10.93;8.23;;;11.80;99.90;;;;;;5048863;28;20044;-86
2023/08/09 05:22:11;;;;;;;12.55;9.10;;;11.90;99.90;;;;;;5050436;28;20037;-84
2023/08/09 05:24:37;;;;;;;10.90;8.23;;;11.90;99.90;;;;;;5036900;28;20044;-85
2023/08/09 05:27:02;;;;;;;9.35;7.95;;;12.00;99.90;;;;;;5061352;28;20040;-86
2023/08/09 05:29:28;;;;;;;8.63;7.57;;;12.00;99.90;;;;;;5062000;28;20037;-85
2023/08/09 05:31:54;;;;;;;10.52;8.02;;;12.10;99.90;;;;;;5033750;28;20037;-86
2023/08/09 05:34:20;;;;;;;10.50;7.78;;;12.10;99.90;;;;;;5046533;28;20175;-86
2023/08/09 05:36:45;;;;;;;11.35;8.10;;;12.20;99.90;;;;;;5061917;28;20040;-86
2023/08/09 05:39:12;;;;;;;10.25;8.30;;;12.20;99.90;;;;;;5049757;28;20821;-85
2023/08/09 05:41:39;;;;;;;9.45;7.88;;;12.30;99.90;;;;;;5033526;28;20520;-86
2023/08/09 05:44:05;;;;;;;8.75;7.18;;;12.40;99.90;;;;;;5063159;28;20067;-86
2023/08/09 05:46:31;;;;;;;8.25;7.45;;;12.40;99.90;;;;;;5039770;28;20369;-85
2023/08/09 05:48:57;;;;;;;7.93;7.05;;;12.50;99.90;;;;;;5033553;28;20488;-85
2023/08/09 05:51:24;;;;;;;8.30;7.40;;;12.60;99.90;;;;;;5018233;28;20045;-86
2023/08/09 05:53:50;;;;;;;8.10;7.07;;;12.70;99.90;;;;;;5056767;28;20049;-85
2023/08/09 05:56:16;;;;;;;10.38;6.95;;;12.80;99.90;;;;;;5020778;28;20068;-84
2023/08/09 05:58:42;;;;;;;9.05;6.57;;;12.80;99.90;;;;;;5034959;28;20488;-85
2023/08/09 06:01:08;;;;;;;7.65;6.07;;;12.90;99.90;;;;;;5065165;28;20449;-85
2023/08/09 06:03:39;;;;;;;9.27;6.90;;;13.00;99.90;;;;;;5033519;28;20091;-86
2023/08/09 06:06:07;;;;;;;7.10;6.40;;;13.10;99.90;;;;;;5050561;28;20044;-86
2023/08/09 06:08:33;;;;;;;6.95;5.97;;;13.20;99.90;;;;;;5057352;28;20052;-86
2023/08/09 06:10:59;;;;;;;9.63;6.25;;;13.30;99.90;;;;;;5059020;28;20044;-87
2023/08/09 06:13:25;;;;;;;6.45;5.40;;;13.40;99.90;;;;;;5021068;28;20037;-86
2023/08/09 06:15:51;;;;;;;9.43;5.72;;;13.50;99.90;;;;;;5064585;28;20044;-86
2023/08/09 06:18:17;;;;;;;6.03;4.38;;;13.60;99.90;;;;;;5040071;28;20049;-86
2023/08/09 06:20:43;;;;;;;6.15;4.20;;;13.80;99.90;;;;;;5056448;28;20044;-86
2023/08/09 06:23:10;;;;;;;5.47;4.20;;;13.90;99.90;;;;;;5054726;28;20124;-86
2023/08/09 06:25:36;;;;;;;7.82;4.10;;;14.00;99.90;;;;;;5039980;28;20417;-86
2023/08/09 06:28:02;;;;;;;6.72;3.70;;;14.10;99.90;;;;;;5053409;28;20037;-87
2023/08/09 06:30:28;;;;;;;4.50;3.70;;;14.20;99.90;;;;;;5035929;28;20051;-86
2023/08/09 06:32:54;;;;;;;6.82;3.75;;;14.30;99.90;;;;;;5049338;28;20052;-86
2023/08/09 06:35:20;;;;;;;7.38;3.85;;;14.40;99.90;;;;;;5038249;28;20508;-87
2023/08/09 06:37:48;;;;;;;3.92;2.88;;;14.50;99.90;;;;;;5052609;28;20557;-86
2023/08/09 06:40:15;;;;;;;3.83;3.30;;;14.60;99.90;;;;;;5061461;28;20072;-86
2023/08/09 06:42:42;;;;;;;4.88;3.03;;;14.70;99.90;;;;;;5055204;28;20045;-87
2023/08/09 06:45:08;;;;;;;3.25;2.50;;;14.80;99.90;;;;;;5031465;28;20049;-87
2023/08/09 06:47:34;;;;;;;3.95;2.58;;;14.90;99.90;;;;;;5048860;28;20033;-86
2023/08/09 06:50:04;;;;;;;4.57;2.80;;;15.00;99.90;;;;;;5036900;28;20066;-87
2023/08/09 06:52:36;;;;;;;3.33;2.33;;;15.00;99.90;;;;;;5041396;28;20067;-87
2023/08/09 06:55:07;;;;;;;4.90;2.42;;;15.10;99.90;;;;;;5065162;28;20119;-86
2023/08/09 06:57:34;;;;;;;3.10;2.10;;;15.20;99.90;;;;;;5037332;28;20083;-87
2023/08/09 07:00:00;;;;;;;3.72;2.03;;;15.30;99.90;;;;;;5032021;28;20044;-87
2023/08/09 07:02:26;;;;;;;2.95;2.13;;;15.40;99.90;;;;;;5031983;28;20120;-87
2023/08/09 07:04:54;;;;;;;3.25;1.83;;;15.40;99.90;;;;;;5044396;28;20037;-86
2023/08/09 07:07:23;;;;;;;2.58;1.73;;;15.60;99.90;;;;;;5035853;28;20070;-86
2023/08/09 07:09:49;;;;;;;2.47;1.80;;;15.60;99.90;;;;;;5052936;28;20033;-86
2023/08/09 07:12:15;;;;;;;4.75;1.60;;;15.80;99.90;;;;;;5046743;28;20045;-86
2023/08/09 07:14:41;;;;;;;2.97;1.40;;;15.90;99.90;;;;;;5036389;28;20051;-86
2023/08/09 07:17:07;;;;;;;2.35;1.50;;;16.00;99.90;;;;;;5060562;28;20045;-86
2023/08/09 07:19:33;;;;;;;3.03;1.60;;;16.10;99.90;;;;;;5029728;28;20045;-86
2023/08/09 07:21:58;;;;;;;2.55;1.40;;;16.20;99.90;;;;;;5011441;28;20041;-87
2023/08/09 07:24:24;;;;;;;3.60;1.42;;;16.30;99.90;;;;;;5036210;28;20049;-86
2023/08/09 07:26:50;;;;;;;1.90;1.40;;;16.40;99.90;;;;;;5042633;28;20115;-86
2023/08/09 07:29:15;;;;;;;1.83;1.40;;;16.50;99.90;;;;;;5054515;28;20495;-85
2023/08/09 07:31:41;;;;;;;4.07;1.70;;;16.60;99.90;;;;;;5055652;28;20070;-86
2023/08/09 07:34:07;;;;;;;3.00;1.38;;;16.60;99.90;;;;;;5065436;28;20040;-86
2023/08/09 07:36:33;;;;;;;2.72;1.20;;;16.80;99.90;;;;;;5032891;28;20122;-86
2023/08/09 07:38:58;;;;;;;4.43;1.40;;;16.80;99.90;;;;;;5025273;28;20095;-86
2023/08/09 07:41:25;;;;;;;1.88;1.30;;;17.00;99.90;;;;;;5045442;28;20040;-86
2023/08/09 07:43:50;;;;;;;2.95;1.20;;;17.10;99.90;;;;;;5046722;28;20056;-86
2023/08/09 07:46:16;;;;;;;2.00;1.30;;;17.20;99.90;;;;;;5025306;28;20053;-84
2023/08/09 07:48:42;;;;;;;2.33;1.20;;;17.30;99.90;;;;;;5039183;28;20040;-85
2023/08/09 07:51:11;;;;;;;2.33;1.20;;;17.40;99.90;;;;;;5069432;28;20545;-87
2023/08/09 07:53:40;;;;;;;1.27;1.00;;;17.50;99.90;;;;;;5061754;28;20557;-86
2023/08/09 07:56:06;;;;;;;3.60;1.25;;;17.50;99.90;;;;;;5041810;28;20044;-85
2023/08/09 07:58:32;;;;;;;1.38;1.00;;;17.60;99.90;;;;;;5058877;28;20041;-85
2023/08/09 08:00:58;;;;;;;3.42;1.38;;;17.60;99.90;;;;;;5055791;28;20456;-85
2023/08/09 08:03:24;;;;;;;3.33;1.08;;;17.70;99.90;;;;;;5031775;28;20056;-84
2023/08/09 08:05:50;;;;;;;2.80;1.42;;;17.70;99.90;;;;;;5062724;28;20483;-85
2023/08/09 08:08:17;;;;;;;3.42;1.20;;;17.90;99.90;;;;;;5063789;28;20036;-84
2023/08/09 08:10:43;;;;;;;2.17;1.15;;;17.90;99.90;;;;;;5062211;28;20110;-85
2023/08/09 08:13:09;;;;;;;1.52;1.20;;;18.00;99.90;;;;;;5044368;28;20067;-84
2023/08/09 08:15:36;;;;;;;2.78;1.20;;;18.10;99.90;;;;;;5047171;28;20080;-85
2023/08/09 08:18:04;;;;;;;2.17;1.10;;;18.20;99.90;;;;;;5063523;28;20048;-85
2023/08/09 08:20:29;;;;;;;2.10;1.13;;;18.20;99.90;;;;;;5058569;28;20488;-85
2023/08/09 08:22:55;;;;;;;1.52;0.90;;;18.30;99.90;;;;;;5034600;28;20045;-85
2023/08/09 08:25:22;;;;;;;2.38;1.10;;;18.30;99.90;;;;;;5050483;28;20520;-86
2023/08/09 08:27:48;;;;;;;1.17;1.08;;;18.40;99.90;;;;;;5057043;28;20052;-85
2023/08/09 08:30:17;;;;;;;2.35;1.08;;;18.50;99.90;;;;;;5037262;28;20033;-86
2023/08/09 08:32:44;;;;;;;2.63;1.10;;;18.60;99.90;;;;;;5062913;28;20659;-85
2023/08/09 08:35:13;;;;;;;1.73;1.10;;;18.60;99.90;;;;;;5064354;28;20906;-85
2023/08/09 08:37:42;;;;;;;4.07;1.00;;;18.60;99.90;;;;;;5031821;28;20046;-85
2023/08/09 08:40:17;;;;;;;1.55;0.90;;;18.70;99.90;;;;;;5020394;28;20071;-86
2023/08/09 08:42:47;;;;;;;3.30;1.20;;;18.80;99.90;;;;;;5035479;28;20045;-84
2023/08/09 08:45:15;;;;;;;1.80;1.08;;;18.90;99.90;;;;;;5043607;28;20058;-85
2023/08/09 08:47:42;;;;;;;3.78;1.20;;;18.90;99.90;;;;;;5071661;28;20122;-86
2023/08/09 08:50:09;;;;;;;2.63;1.30;;;19.00;99.90;;;;;;5046245;28;20040;-85
2023/08/09 08:52:38;;;;;;;1.95;1.30;;;19.10;99.90;;;;;;5014969;28;20101;-86
2023/08/09 08:55:11;;;;;;;1.77;1.30;;;19.10;99.90;;;;;;5029788;28;20079;-85
2023/08/09 08:57:39;;;;;;;1.92;1.02;;;19.10;99.90;;;;;;5039284;28;20048;-84
2023/08/09 09:00:24;;;;;;;1.73;1.17;;;19.20;99.90;;;;;;5057653;28;20078;-86
2023/08/09 09:02:50;;;;;;;2.17;1.00;;;19.10;99.90;;;;;;5014507;28;20042;-85
2023/08/09 09:05:16;;;;;;;2.78;1.45;;;18.90;99.90;;;;;;5046903;28;20107;-85
2023/08/09 09:07:45;;;;;;;2.75;1.23;;;18.70;99.90;;;;;;5034059;28;20048;-84
2023/08/09 09:10:14;;;;;;;1.67;1.00;;;18.70;99.90;;;;;;5027832;28;20045;-85
2023/08/09 09:12:40;;;;;;;3.10;1.17;;;18.90;99.90;;;;;;5051853;28;20057;-84
2023/08/09 09:15:10;;;;;;;2.42;1.30;;;19.10;99.90;;;;;;5035594;28;20063;-85
2023/08/09 09:17:40;;;;;;;1.83;1.17;;;19.30;99.90;;;;;;5021739;28;20049;-85
2023/08/09 09:20:40;;;;;;;1.65;1.10;;;19.40;99.90;;;;;;5062267;28;20045;-85
2023/08/09 09:23:06;;;;;;;2.05;1.40;;;19.50;99.90;;;;;;5012091;28;20049;-84
2023/08/09 09:25:32;;;;;;;2.03;1.30;;;19.50;99.90;;;;;;5051338;28;20041;-86
2023/08/09 09:27:58;;;;;;;1.20;1.10;;;19.40;99.90;;;;;;5050695;28;20094;-86
2023/08/09 09:30:31;;;;;;;2.90;1.20;;;19.40;99.90;;;;;;5050312;28;20037;-85
2023/08/09 09:33:05;;;;;;;3.03;1.20;;;19.50;99.90;;;;;;5062065;28;20499;-84
2023/08/09 09:35:32;;;;;;;1.73;1.13;;;19.60;99.90;;;;;;5030614;28;20132;-86
2023/08/09 09:37:59;;;;;;;3.13;1.30;;;19.80;99.90;;;;;;5058753;28;20040;-85
2023/08/09 09:40:25;;;;;;;2.22;1.30;;;19.60;99.90;;;;;;5051672;28;20123;-85
2023/08/09 09:42:55;;;;;;;2.40;1.33;;;19.70;99.90;;;;;;5071156;28;20116;-85
2023/08/09 09:45:23;;;;;;;2.80;1.15;;;19.90;99.90;;;;;;5037682;28;20045;-85
2023/08/09 09:47:51;;;;;;;3.90;1.30;;;19.80;99.90;;;;;;5054363;28;20044;-85
2023/08/09 09:50:17;;;;;;;1.85;1.13;;;19.70;99.90;;;;;;5067133;28;20040;-85
2023/08/09 09:52:44;;;;;;;3.53;1.73;;;19.50;99.90;;;;;;5042188;28;20480;-84
2023/08/09 09:55:10;;;;;;;2.50;1.42;;;19.30;99.90;;;;;;5040721;28;20043;-85
2023/08/09 09:57:38;;;;;;;1.77;1.17;;;19.40;99.90;;;;;;5059789;28;20080;-85
2023/08/09 10:00:11;;;;;;;3.20;1.50;;;19.50;99.90;;;;;;5047202;28;20127;-85
2023/08/09 10:02:48;;;;;;;3.05;1.40;;;19.80;99.90;;;;;;5061483;28;20054;-84
2023/08/09 10:05:36;;;;;;;1.77;1.30;;;19.90;99.90;;;;;;5061806;28;20238;-86
2023/08/09 10:08:07;;;;;;;1.73;1.20;;;20.00;99.90;;;;;;5017329;28;20038;-85
2023/08/09 10:10:36;;;;;;;1.40;1.17;;;20.00;99.90;;;;;;5066153;28;20090;-85
2023/08/09 10:13:05;;;;;;;2.08;1.20;;;19.80;99.90;;;;;;5037733;28;20128;-86
2023/08/09 10:15:44;;;;;;;1.35;1.00;;;19.80;99.90;;;;;;5021456;28;20137;-86
2023/08/09 10:18:18;;;;;;;2.75;1.40;;;19.90;99.90;;;;;;5037739;28;20037;-84
2023/08/09 10:20:47;;;;;;;1.20;1.10;;;19.90;99.90;;;;;;5054504;28;20041;-86
2023/08/09 10:23:24;;;;;;;2.22;1.20;;;19.70;99.90;;;;;;5054355;28;20044;-85
2023/08/09 10:25:51;;;;;;;3.35;1.10;;;19.50;99.90;;;;;;5069154;28;20050;-85
2023/08/09 10:28:19;;;;;;;2.47;1.30;;;19.60;99.90;;;;;;5032137;28;20396;-85
2023/08/09 10:30:51;;;;;;;3.38;1.38;;;19.80;99.90;;;;;;5047456;28;20128;-84
2023/08/09 10:33:19;;;;;;;2.53;1.20;;;20.00;99.90;;;;;;5070749;28;20128;-85
2023/08/09 10:35:52;;;;;;;1.10;0.90;;;20.30;99.90;;;;;;5038528;28;20131;-84
2023/08/09 10:38:39;;;;;;;2.78;1.10;;;20.30;99.90;;;;;;5036662;28;20068;-85
2023/08/09 10:41:11;;;;;;;2.78;1.20;;;20.10;99.90;;;;;;5050669;28;20069;-85
2023/08/09 10:43:37;;;;;;;2.03;1.10;;;19.80;99.90;;;;;;5055179;28;20036;-85
2023/08/09 10:46:32;;;;;;;2.67;1.27;;;19.80;99.90;;;;;;5036698;28;20049;-84
2023/08/09 10:49:03;;;;;;;1.55;1.00;;;20.10;99.90;;;;;;5045691;28;20405;-85
2023/08/09 10:51:29;;;;;;;1.03;0.87;;;20.30;99.90;;;;;;5036826;28;20039;-85
2023/08/09 10:54:03;;;;;;;2.45;1.30;;;20.60;99.90;;;;;;5052874;28;20048;-85
2023/08/09 10:56:30;;;;;;;2.15;1.10;;;20.80;99.90;;;;;;5051920;28;20037;-85
2023/08/09 10:59:01;;;;;;;1.48;0.98;;;20.60;99.90;;;;;;5038664;28;20530;-85
2023/08/09 11:01:27;;;;;;;1.70;1.13;;;20.30;99.90;;;;;;5051581;28;20044;-85
2023/08/09 11:03:53;;;;;;;1.42;0.95;;;20.20;99.90;;;;;;5025418;28;20198;-86
2023/08/09 11:06:39;;;;;;;3.53;1.05;;;20.00;99.90;;;;;;5035342;28;20454;-84
2023/08/09 11:09:07;;;;;;;1.70;0.90;;;19.90;99.90;;;;;;5036256;28;20098;-84
2023/08/09 11:11:34;;;;;;;2.25;1.13;;;19.80;99.90;;;;;;5036172;28;20120;-85
2023/08/09 11:14:01;;;;;;;2.58;0.98;;;19.60;99.90;;;;;;5058774;28;20041;-84
2023/08/09 11:16:27;;;;;;;1.20;1.10;;;19.80;99.90;;;;;;5058369;28;20112;-85
2023/08/09 11:19:03;;;;;;;1.77;1.23;;;20.20;99.90;;;;;;5037346;28;20503;-85
2023/08/09 11:21:49;;;;;;;1.23;1.10;;;20.40;99.90;;;;;;5057144;28;20048;-85
2023/08/09 11:24:17;;;;;;;1.52;0.98;;;20.40;99.90;;;;;;5040729;28;20128;-84
2023/08/09 11:26:52;;;;;;;1.92;0.98;;;20.30;99.90;;;;;;5043334;28;20037;-85
2023/08/09 11:29:20;;;;;;;1.75;0.88;;;20.30;99.90;;;;;;5053065;28;20083;-84
2023/08/09 11:31:48;;;;;;;2.08;1.20;;;20.40;99.90;;;;;;5055862;28;20036;-85
2023/08/09 11:34:16;;;;;;;1.77;1.10;;;20.40;99.90;;;;;;5047476;28;20059;-84
2023/08/09 11:36:44;;;;;;;3.00;1.08;;;20.50;99.90;;;;;;5072714;28;20059;-84
2023/08/09 11:39:12;;;;;;;1.95;1.27;;;20.90;99.90;;;;;;5040696;28;20033;-85
2023/08/09 11:41:54;;;;;;;2.22;1.20;;;21.00;99.90;;;;;;5038927;28;20040;-84
2023/08/09 11:44:38;;;;;;;1.20;1.10;;;20.80;99.90;;;;;;5053909;28;20041;-84
2023/08/09 11:47:04;;;;;;;0.85;0.85;;;20.70;99.90;;;;;;5057913;28;20103;-85
2023/08/09 11:49:34;;;;;;;1.58;1.00;;;20.90;99.90;;;;;;5041353;28;20072;-85
2023/08/09 11:52:01;;;;;;;1.98;1.05;;;21.10;99.90;;;;;;5044746;28;20436;-86
2023/08/09 11:54:28;;;;;;;1.50;1.20;;;21.20;99.90;;;;;;5024647;28;20318;-86
2023/08/09 11:56:54;;;;;;;1.88;1.10;;;21.40;99.90;;;;;;5051211;28;20044;-87
2023/08/09 11:59:22;;;;;;;1.70;1.00;;;21.50;99.90;;;;;;5052173;28;20049;-85
2023/08/09 12:01:56;;;;;;;1.33;1.15;;;21.40;99.90;;;;;;5034816;28;20047;-86
2023/08/09 12:04:25;;;;;;;2.50;1.17;;;21.20;99.90;;;;;;5018188;28;20408;-85
2023/08/09 12:06:56;;;;;;;1.33;1.10;;;20.90;99.90;;;;;;5040661;28;20114;-85
2023/08/09 12:09:49;;;;;;;1.77;1.15;;;21.00;99.90;;;;;;5038388;28;20047;-85
2023/08/09 12:12:33;;;;;;;1.67;1.20;;;20.90;99.90;;;;;;5044502;28;20045;-84
2023/08/09 12:14:59;;;;;;;1.20;1.05;;;20.90;99.90;;;;;;5050172;28;20036;-85
2023/08/09 12:17:29;;;;;;;4.30;1.23;;;20.90;99.90;;;;;;5044929;28;20041;-85
2023/08/09 12:20:00;;;;;;;1.52;1.15;;;21.00;99.90;;;;;;5034993;28;20167;-85
2023/08/09 12:22:27;;;;;;;8.35;1.85;;;21.00;99.90;;;;;;5052787;28;20392;-86
2023/08/09 12:24:54;;;;;;;6.03;1.65;;;21.20;99.90;;;;;;5008910;28;20037;-84
2023/08/09 12:27:20;;;;;;;14.13;2.80;;;21.10;99.90;;;;;;5047807;28;20065;-85
2023/08/09 12:29:47;;;;;;;2.53;1.33;;;21.20;99.90;;;;;;5018160;28;20037;-84
2023/08/09 12:32:13;;;;;;;3.80;1.58;;;21.40;99.90;;;;;;5034939;28;20033;-83
2023/08/09 12:34:39;;;;;;;4.65;1.70;;;21.40;99.90;;;;;;5033391;28;20492;-86
2023/08/09 12:37:05;;;;;;;1.55;1.17;;;21.40;99.90;;;;;;5050913;28;20115;-85
2023/08/09 12:39:32;;;;;;;2.20;1.15;;;21.60;99.90;;;;;;5040077;28;20041;-84
2023/08/09 12:41:59;;;;;;;4.13;1.65;;;21.70;99.90;;;;;;5045998;28;20044;-85
2023/08/09 12:44:24;;;;;;;2.45;1.30;;;21.70;99.90;;;;;;5009628;28;20041;-86
2023/08/09 12:46:50;;;;;;;2.63;1.38;;;21.50;99.90;;;;;;5070941;28;20048;-86